sensor_id;sensor_type;location;lat;lon;timestamp;P1;durP1;ratioP1;P2;durP2;ratioP2
58874;SDS011;44652;49.040;12.126;2023-11-21T05:43:50;3.20;;;1.95;;
58874;SDS011;44652;49.040;12.126;2023-11-21T05:46:16;3.92;;;1.98;;
58874;SDS011;44652;49.040;12.126;2023-11-21T05:48:44;3.45;;;2.25;;
58874;SDS011;44652;49.040;12.126;2023-11-21T05:51:11;3.72;;;1.75;;
58874;SDS011;44652;49.040;12.126;2023-11-21T05:53:40;2.00;;;1.40;;
58874;SDS011;44652;49.040;12.126;2023-11-21T05:56:07;2.08;;;1.25;;
58874;SDS011;44652;49.040;12.126;2023-11-21T05:58:34;2.95;;;2.22;;
58874;SDS011;44652;49.040;12.126;2023-11-21T06:01:00;4.45;;;2.42;;
58874;SDS011;44652;49.040;12.126;2023-11-21T06:03:27;2.55;;;1.75;;
58874;SDS011;44652;49.040;12.126;2023-11-21T06:05:54;2.95;;;1.77;;
58874;SDS011;44652;49.040;12.126;2023-11-21T06:08:21;3.55;;;1.42;;
58874;SDS011;44652;49.040;12.126;2023-11-21T06:10:47;2.58;;;1.40;;
58874;SDS011;44652;49.040;12.126;2023-11-21T06:13:15;2.33;;;1.58;;
58874;SDS011;44652;49.040;12.126;2023-11-21T06:15:42;3.92;;;1.80;;
58874;SDS011;44652;49.040;12.126;2023-11-21T06:18:09;2.22;;;1.38;;
58874;SDS011;44652;49.040;12.126;2023-11-21T06:20:40;4.55;;;2.67;;
58874;SDS011;44652;49.040;12.126;2023-11-21T06:23:07;3.38;;;1.77;;
58874;SDS011;44652;49.040;12.126;2023-11-21T06:25:35;3.35;;;1.67;;
58874;SDS011;44652;49.040;12.126;2023-11-21T06:28:03;4.03;;;1.85;;
58874;SDS011;44652;49.040;12.126;2023-11-21T06:30:30;3.53;;;1.92;;
58874;SDS011;44652;49.040;12.126;2023-11-21T06:32:56;3.30;;;1.85;;
58874;SDS011;44652;49.040;12.126;2023-11-21T06:35:23;2.95;;;1.60;;
58874;SDS011;44652;49.040;12.126;2023-11-21T06:37:50;6.47;;;1.88;;
58874;SDS011;44652;49.040;12.126;2023-11-21T06:40:19;2.47;;;1.70;;
58874;SDS011;44652;49.040;12.126;2023-11-21T06:45:14;4.65;;;1.60;;
58874;SDS011;44652;49.040;12.126;2023-11-21T06:47:42;3.45;;;1.70;;
58874;SDS011;44652;49.040;12.126;2023-11-21T06:50:09;2.38;;;1.70;;
58874;SDS011;44652;49.040;12.126;2023-11-21T06:52:36;3.80;;;1.95;;
58874;SDS011;44652;49.040;12.126;2023-11-21T06:55:02;2.92;;;1.67;;
58874;SDS011;44652;49.040;12.126;2023-11-21T06:57:30;2.85;;;1.75;;
58874;SDS011;44652;49.040;12.126;2023-11-21T07:00:00;3.72;;;2.55;;
58874;SDS011;44652;49.040;12.126;2023-11-21T07:02:26;3.15;;;1.65;;
58874;SDS011;44652;49.040;12.126;2023-11-21T07:04:54;2.60;;;1.50;;
58874;SDS011;44652;49.040;12.126;2023-11-21T07:07:21;13.15;;;1.70;;
58874;SDS011;44652;49.040;12.126;2023-11-21T07:09:48;5.18;;;2.10;;
58874;SDS011;44652;49.040;12.126;2023-11-21T07:12:15;7.15;;;2.85;;
58874;SDS011;44652;49.040;12.126;2023-11-21T07:14:42;5.22;;;2.33;;
58874;SDS011;44652;49.040;12.126;2023-11-21T07:17:11;5.03;;;2.55;;
58874;SDS011;44652;49.040;12.126;2023-11-21T07:19:41;4.65;;;2.00;;
58874;SDS011;44652;49.040;12.126;2023-11-21T07:22:08;3.70;;;1.67;;
58874;SDS011;44652;49.040;12.126;2023-11-21T07:24:35;3.08;;;1.88;;
58874;SDS011;44652;49.040;12.126;2023-11-21T07:27:05;2.85;;;1.83;;
58874;SDS011;44652;49.040;12.126;2023-11-21T07:29:32;2.33;;;1.63;;
58874;SDS011;44652;49.040;12.126;2023-11-21T07:31:59;3.33;;;1.50;;
58874;SDS011;44652;49.040;12.126;2023-11-21T07:34:27;3.93;;;2.00;;
58874;SDS011;44652;49.040;12.126;2023-11-21T07:36:53;2.92;;;1.55;;
58874;SDS011;44652;49.040;12.126;2023-11-21T07:39:20;4.07;;;1.95;;
58874;SDS011;44652;49.040;12.126;2023-11-21T07:41:47;7.20;;;2.88;;
58874;SDS011;44652;49.040;12.126;2023-11-21T07:44:16;2.20;;;1.58;;
58874;SDS011;44652;49.040;12.126;2023-11-21T07:46:44;3.83;;;1.65;;
58874;SDS011;44652;49.040;12.126;2023-11-21T07:49:11;4.43;;;2.03;;
58874;SDS011;44652;49.040;12.126;2023-11-21T07:51:43;2.45;;;1.42;;
58874;SDS011;44652;49.040;12.126;2023-11-21T07:54:10;4.97;;;1.90;;
58874;SDS011;44652;49.040;12.126;2023-11-21T07:56:36;2.92;;;1.70;;
58874;SDS011;44652;49.040;12.126;2023-11-21T07:59:03;5.43;;;1.98;;
58874;SDS011;44652;49.040;12.126;2023-11-21T08:01:30;2.88;;;1.73;;
58874;SDS011;44652;49.040;12.126;2023-11-21T08:03:58;2.22;;;1.60;;
58874;SDS011;44652;49.040;12.126;2023-11-21T08:06:30;6.18;;;1.77;;
58874;SDS011;44652;49.040;12.126;2023-11-21T08:08:57;3.17;;;2.17;;
58874;SDS011;44652;49.040;12.126;2023-11-21T08:11:24;2.90;;;1.63;;
58874;SDS011;44652;49.040;12.126;2023-11-21T08:13:51;10.57;;;2.70;;
58874;SDS011;44652;49.040;12.126;2023-11-21T08:16:17;3.15;;;1.77;;
58874;SDS011;44652;49.040;12.126;2023-11-21T08:18:44;3.80;;;2.05;;
58874;SDS011;44652;49.040;12.126;2023-11-21T08:21:14;7.47;;;2.65;;
58874;SDS011;44652;49.040;12.126;2023-11-21T08:23:41;6.75;;;1.88;;
58874;SDS011;44652;49.040;12.126;2023-11-21T08:26:08;5.82;;;2.00;;
58874;SDS011;44652;49.040;12.126;2023-11-21T08:28:35;3.90;;;1.92;;
58874;SDS011;44652;49.040;12.126;2023-11-21T08:31:02;4.03;;;2.45;;
58874;SDS011;44652;49.040;12.126;2023-11-21T08:33:28;3.90;;;1.98;;
58874;SDS011;44652;49.040;12.126;2023-11-21T08:35:55;7.90;;;2.47;;
58874;SDS011;44652;49.040;12.126;2023-11-21T08:38:22;9.25;;;2.60;;
58874;SDS011;44652;49.040;12.126;2023-11-21T08:40:48;3.63;;;1.70;;
58874;SDS011;44652;49.040;12.126;2023-11-21T08:43:15;5.70;;;2.00;;
58874;SDS011;44652;49.040;12.126;2023-11-21T08:45:42;5.88;;;2.15;;
58874;SDS011;44652;49.040;12.126;2023-11-21T08:48:09;8.93;;;1.67;;
58874;SDS011;44652;49.040;12.126;2023-11-21T08:50:38;7.05;;;2.78;;
58874;SDS011;44652;49.040;12.126;2023-11-21T08:53:04;4.43;;;2.60;;
58874;SDS011;44652;49.040;12.126;2023-11-21T08:55:32;5.87;;;2.17;;
58874;SDS011;44652;49.040;12.126;2023-11-21T08:58:04;4.78;;;1.88;;
58874;SDS011;44652;49.040;12.126;2023-11-21T09:00:32;2.25;;;1.40;;
58874;SDS011;44652;49.040;12.126;2023-11-21T09:03:00;2.90;;;1.48;;
58874;SDS011;44652;49.040;12.126;2023-11-21T09:05:28;4.50;;;1.80;;
58874;SDS011;44652;49.040;12.126;2023-11-21T09:07:55;5.18;;;2.15;;
58874;SDS011;44652;49.040;12.126;2023-11-21T09:10:21;8.13;;;2.50;;
58874;SDS011;44652;49.040;12.126;2023-11-21T09:12:49;3.05;;;1.55;;
58874;SDS011;44652;49.040;12.126;2023-11-21T09:15:16;3.58;;;1.80;;
58874;SDS011;44652;49.040;12.126;2023-11-21T09:17:42;7.32;;;3.20;;
58874;SDS011;44652;49.040;12.126;2023-11-21T09:20:11;4.13;;;2.45;;
58874;SDS011;44652;49.040;12.126;2023-11-21T09:22:38;4.97;;;2.63;;
58874;SDS011;44652;49.040;12.126;2023-11-21T09:25:05;6.57;;;2.58;;
58874;SDS011;44652;49.040;12.126;2023-11-21T09:27:32;6.20;;;2.97;;
58874;SDS011;44652;49.040;12.126;2023-11-21T09:29:58;3.53;;;1.75;;
58874;SDS011;44652;49.040;12.126;2023-11-21T09:32:25;2.85;;;1.50;;
58874;SDS011;44652;49.040;12.126;2023-11-21T09:34:52;3.10;;;1.60;;
58874;SDS011;44652;49.040;12.126;2023-11-21T09:37:21;2.65;;;1.60;;
58874;SDS011;44652;49.040;12.126;2023-11-21T09:39:48;3.05;;;1.52;;
58874;SDS011;44652;49.040;12.126;2023-11-21T09:42:20;2.42;;;1.75;;
58874;SDS011;44652;49.040;12.126;2023-11-21T09:44:54;2.70;;;1.38;;
58874;SDS011;44652;49.040;12.126;2023-11-21T09:47:28;3.15;;;1.48;;
58874;SDS011;44652;49.040;12.126;2023-11-21T09:49:54;2.75;;;1.70;;
58874;SDS011;44652;49.040;12.126;2023-11-21T09:52:26;1.67;;;1.08;;
58874;SDS011;44652;49.040;12.126;2023-11-21T09:54:55;2.58;;;1.40;;
58874;SDS011;44652;49.040;12.126;2023-11-21T09:57:26;2.03;;;1.10;;
58874;SDS011;44652;49.040;12.126;2023-11-21T09:59:54;2.70;;;1.50;;
58874;SDS011;44652;49.040;12.126;2023-11-21T10:02:26;2.38;;;1.40;;
58874;SDS011;44652;49.040;12.126;2023-11-21T10:04:56;2.63;;;1.58;;
58874;SDS011;44652;49.040;12.126;2023-11-21T10:07:23;3.83;;;2.20;;
58874;SDS011;44652;49.040;12.126;2023-11-21T10:09:50;2.50;;;1.48;;
58874;SDS011;44652;49.040;12.126;2023-11-21T10:12:18;1.73;;;1.05;;
58874;SDS011;44652;49.040;12.126;2023-11-21T10:14:48;2.85;;;1.10;;
58874;SDS011;44652;49.040;12.126;2023-11-21T10:17:17;3.60;;;1.45;;
58874;SDS011;44652;49.040;12.126;2023-11-21T10:19:48;3.60;;;1.50;;
58874;SDS011;44652;49.040;12.126;2023-11-21T10:22:15;1.70;;;0.98;;
58874;SDS011;44652;49.040;12.126;2023-11-21T10:24:42;2.25;;;1.35;;
58874;SDS011;44652;49.040;12.126;2023-11-21T10:27:19;2.17;;;1.13;;
58874;SDS011;44652;49.040;12.126;2023-11-21T10:29:45;1.98;;;1.10;;
58874;SDS011;44652;49.040;12.126;2023-11-21T10:32:12;3.53;;;1.23;;
58874;SDS011;44652;49.040;12.126;2023-11-21T10:34:39;1.67;;;1.02;;
58874;SDS011;44652;49.040;12.126;2023-11-21T10:39:43;1.67;;;1.10;;
58874;SDS011;44652;49.040;12.126;2023-11-21T10:44:38;2.25;;;1.02;;
58874;SDS011;44652;49.040;12.126;2023-11-21T10:47:05;2.20;;;1.05;;
58874;SDS011;44652;49.040;12.126;2023-11-21T10:49:35;2.10;;;1.13;;
58874;SDS011;44652;49.040;12.126;2023-11-21T10:52:03;2.33;;;1.13;;
58874;SDS011;44652;49.040;12.126;2023-11-21T10:54:30;2.03;;;1.20;;
58874;SDS011;44652;49.040;12.126;2023-11-21T10:56:58;1.52;;;1.00;;
58874;SDS011;44652;49.040;12.126;2023-11-21T10:59:30;1.08;;;0.75;;
58874;SDS011;44652;49.040;12.126;2023-11-21T11:01:59;3.70;;;1.30;;
58874;SDS011;44652;49.040;12.126;2023-11-21T11:04:30;0.90;;;0.80;;
58874;SDS011;44652;49.040;12.126;2023-11-21T11:06:59;2.65;;;1.63;;
58874;SDS011;44652;49.040;12.126;2023-11-21T11:09:31;2.55;;;1.50;;
58874;SDS011;44652;49.040;12.126;2023-11-21T11:12:02;2.40;;;1.13;;
58874;SDS011;44652;49.040;12.126;2023-11-21T11:14:31;1.60;;;1.02;;
58874;SDS011;44652;49.040;12.126;2023-11-21T11:16:58;1.27;;;0.85;;
58874;SDS011;44652;49.040;12.126;2023-11-21T11:19:27;3.17;;;1.17;;
58874;SDS011;44652;49.040;12.126;2023-11-21T11:24:41;1.63;;;0.98;;
58874;SDS011;44652;49.040;12.126;2023-11-21T11:27:39;2.42;;;1.33;;
58874;SDS011;44652;49.040;12.126;2023-11-21T11:32:53;3.97;;;1.05;;
58874;SDS011;44652;49.040;12.126;2023-11-21T11:35:34;1.02;;;0.80;;
58874;SDS011;44652;49.040;12.126;2023-11-21T11:38:13;2.22;;;1.30;;
58874;SDS011;44652;49.040;12.126;2023-11-21T11:40:46;1.67;;;1.02;;
58874;SDS011;44652;49.040;12.126;2023-11-21T11:43:14;2.38;;;0.90;;
58874;SDS011;44652;49.040;12.126;2023-11-21T11:45:52;3.88;;;1.10;;
58874;SDS011;44652;49.040;12.126;2023-11-21T11:48:22;2.22;;;1.25;;
58874;SDS011;44652;49.040;12.126;2023-11-21T11:51:02;2.80;;;1.30;;
58874;SDS011;44652;49.040;12.126;2023-11-21T11:53:36;1.88;;;1.17;;
58874;SDS011;44652;49.040;12.126;2023-11-21T11:59:01;1.10;;;0.75;;
58874;SDS011;44652;49.040;12.126;2023-11-21T12:01:31;3.47;;;1.00;;
58874;SDS011;44652;49.040;12.126;2023-11-21T12:06:43;1.25;;;1.00;;
58874;SDS011;44652;49.040;12.126;2023-11-21T12:09:12;3.78;;;1.58;;
58874;SDS011;44652;49.040;12.126;2023-11-21T12:11:48;1.55;;;0.93;;
58874;SDS011;44652;49.040;12.126;2023-11-21T12:14:18;1.83;;;1.05;;
58874;SDS011;44652;49.040;12.126;2023-11-21T12:16:44;0.88;;;0.73;;
58874;SDS011;44652;49.040;12.126;2023-11-21T12:19:11;4.03;;;1.10;;
58874;SDS011;44652;49.040;12.126;2023-11-21T12:21:39;2.10;;;1.10;;
58874;SDS011;44652;49.040;12.126;2023-11-21T12:24:10;1.05;;;0.82;;
58874;SDS011;44652;49.040;12.126;2023-11-21T12:26:40;3.20;;;1.27;;
58874;SDS011;44652;49.040;12.126;2023-11-21T12:29:07;1.15;;;0.80;;
58874;SDS011;44652;49.040;12.126;2023-11-21T12:31:34;0.93;;;0.80;;
58874;SDS011;44652;49.040;12.126;2023-11-21T12:34:02;1.25;;;0.90;;
58874;SDS011;44652;49.040;12.126;2023-11-21T12:36:29;1.35;;;0.90;;
58874;SDS011;44652;49.040;12.126;2023-11-21T12:38:56;1.88;;;0.80;;
58874;SDS011;44652;49.040;12.126;2023-11-21T12:41:23;2.10;;;1.35;;
58874;SDS011;44652;49.040;12.126;2023-11-21T12:43:50;2.25;;;1.02;;
58874;SDS011;44652;49.040;12.126;2023-11-21T12:46:17;1.73;;;1.00;;
58874;SDS011;44652;49.040;12.126;2023-11-21T12:48:44;1.23;;;0.80;;
58874;SDS011;44652;49.040;12.126;2023-11-21T12:51:14;1.55;;;1.02;;
58874;SDS011;44652;49.040;12.126;2023-11-21T12:53:42;1.05;;;0.70;;
58874;SDS011;44652;49.040;12.126;2023-11-21T12:56:12;1.30;;;0.90;;
58874;SDS011;44652;49.040;12.126;2023-11-21T12:58:40;5.47;;;1.23;;
58874;SDS011;44652;49.040;12.126;2023-11-21T13:01:13;1.70;;;0.80;;
58874;SDS011;44652;49.040;12.126;2023-11-21T13:03:48;2.15;;;0.95;;
58874;SDS011;44652;49.040;12.126;2023-11-21T13:06:17;1.35;;;0.80;;
58874;SDS011;44652;49.040;12.126;2023-11-21T13:08:45;3.33;;;1.20;;
58874;SDS011;44652;49.040;12.126;2023-11-21T13:11:12;2.10;;;1.20;;
58874;SDS011;44652;49.040;12.126;2023-11-21T13:13:41;2.35;;;0.90;;
58874;SDS011;44652;49.040;12.126;2023-11-21T13:16:12;2.72;;;1.42;;
58874;SDS011;44652;49.040;12.126;2023-11-21T13:18:39;1.88;;;1.00;;
58874;SDS011;44652;49.040;12.126;2023-11-21T13:21:08;2.78;;;0.90;;
58874;SDS011;44652;49.040;12.126;2023-11-21T13:23:44;1.63;;;0.90;;
58874;SDS011;44652;49.040;12.126;2023-11-21T13:26:13;1.83;;;0.98;;
58874;SDS011;44652;49.040;12.126;2023-11-21T13:28:41;2.40;;;1.30;;
58874;SDS011;44652;49.040;12.126;2023-11-21T13:31:13;1.98;;;1.05;;
58874;SDS011;44652;49.040;12.126;2023-11-21T13:33:59;0.50;;;0.50;;
58874;SDS011;44652;49.040;12.126;2023-11-21T13:36:31;0.90;;;0.73;;
58874;SDS011;44652;49.040;12.126;2023-11-21T13:39:02;1.63;;;0.80;;
58874;SDS011;44652;49.040;12.126;2023-11-21T13:41:35;0.93;;;0.75;;
58874;SDS011;44652;49.040;12.126;2023-11-21T13:44:04;0.85;;;0.60;;
58874;SDS011;44652;49.040;12.126;2023-11-21T13:46:53;1.70;;;1.08;;
58874;SDS011;44652;49.040;12.126;2023-11-21T13:49:22;1.95;;;0.98;;
58874;SDS011;44652;49.040;12.126;2023-11-21T13:51:49;1.25;;;0.75;;
58874;SDS011;44652;49.040;12.126;2023-11-21T13:54:19;2.30;;;0.80;;
58874;SDS011;44652;49.040;12.126;2023-11-21T13:56:47;1.40;;;0.90;;
58874;SDS011;44652;49.040;12.126;2023-11-21T13:59:17;0.90;;;0.60;;
58874;SDS011;44652;49.040;12.126;2023-11-21T14:01:52;1.05;;;0.70;;
58874;SDS011;44652;49.040;12.126;2023-11-21T14:04:27;1.30;;;0.80;;
58874;SDS011;44652;49.040;12.126;2023-11-21T14:06:56;1.67;;;0.88;;
58874;SDS011;44652;49.040;12.126;2023-11-21T14:09:25;4.50;;;1.10;;
58874;SDS011;44652;49.040;12.126;2023-11-21T14:11:59;4.72;;;0.65;;
58874;SDS011;44652;49.040;12.126;2023-11-21T14:14:27;2.10;;;0.93;;
58874;SDS011;44652;49.040;12.126;2023-11-21T14:16:57;1.02;;;0.88;;
58874;SDS011;44652;49.040;12.126;2023-11-21T14:21:58;2.03;;;0.77;;
58874;SDS011;44652;49.040;12.126;2023-11-21T14:24:24;2.40;;;1.02;;
58874;SDS011;44652;49.040;12.126;2023-11-21T14:26:51;1.73;;;0.80;;
58874;SDS011;44652;49.040;12.126;2023-11-21T14:29:19;2.85;;;1.45;;
58874;SDS011;44652;49.040;12.126;2023-11-21T14:31:47;2.03;;;0.70;;
58874;SDS011;44652;49.040;12.126;2023-11-21T14:34:14;1.63;;;1.10;;
58874;SDS011;44652;49.040;12.126;2023-11-21T14:36:46;1.88;;;1.02;;
58874;SDS011;44652;49.040;12.126;2023-11-21T14:39:14;1.52;;;0.90;;
58874;SDS011;44652;49.040;12.126;2023-11-21T14:41:50;1.35;;;0.98;;
58874;SDS011;44652;49.040;12.126;2023-11-21T14:44:19;1.85;;;1.00;;
58874;SDS011;44652;49.040;12.126;2023-11-21T14:49:17;1.42;;;0.80;;
58874;SDS011;44652;49.040;12.126;2023-11-21T14:51:47;1.30;;;1.08;;
58874;SDS011;44652;49.040;12.126;2023-11-21T14:54:34;4.28;;;1.23;;
58874;SDS011;44652;49.040;12.126;2023-11-21T14:57:08;3.20;;;1.13;;
58874;SDS011;44652;49.040;12.126;2023-11-21T14:59:45;1.73;;;0.90;;
58874;SDS011;44652;49.040;12.126;2023-11-21T15:02:24;2.10;;;1.23;;
58874;SDS011;44652;49.040;12.126;2023-11-21T15:05:29;2.97;;;1.65;;
58874;SDS011;44652;49.040;12.126;2023-11-21T15:07:56;1.70;;;1.02;;
58874;SDS011;44652;49.040;12.126;2023-11-21T15:10:34;4.60;;;1.65;;
58874;SDS011;44652;49.040;12.126;2023-11-21T15:13:16;4.18;;;2.05;;
58874;SDS011;44652;49.040;12.126;2023-11-21T15:15:42;4.43;;;2.42;;
58874;SDS011;44652;49.040;12.126;2023-11-21T15:18:09;4.72;;;1.92;;
58874;SDS011;44652;49.040;12.126;2023-11-21T15:20:41;4.82;;;2.70;;
58874;SDS011;44652;49.040;12.126;2023-11-21T15:23:09;3.90;;;1.95;;
58874;SDS011;44652;49.040;12.126;2023-11-21T15:25:39;3.17;;;1.85;;
58874;SDS011;44652;49.040;12.126;2023-11-21T15:28:05;4.22;;;2.17;;
58874;SDS011;44652;49.040;12.126;2023-11-21T15:30:32;2.85;;;1.73;;
58874;SDS011;44652;49.040;12.126;2023-11-21T15:32:59;5.00;;;1.65;;
58874;SDS011;44652;49.040;12.126;2023-11-21T15:35:26;2.88;;;1.58;;
58874;SDS011;44652;49.040;12.126;2023-11-21T15:37:56;3.00;;;1.75;;
58874;SDS011;44652;49.040;12.126;2023-11-21T15:42:51;2.28;;;1.33;;
58874;SDS011;44652;49.040;12.126;2023-11-21T15:45:18;1.48;;;1.08;;
58874;SDS011;44652;49.040;12.126;2023-11-21T15:47:47;3.15;;;1.63;;
58874;SDS011;44652;49.040;12.126;2023-11-21T15:50:14;4.57;;;2.58;;
58874;SDS011;44652;49.040;12.126;2023-11-21T15:52:41;6.75;;;3.05;;
58874;SDS011;44652;49.040;12.126;2023-11-21T15:55:23;5.35;;;3.08;;
58874;SDS011;44652;49.040;12.126;2023-11-21T15:57:51;6.15;;;3.53;;
58874;SDS011;44652;49.040;12.126;2023-11-21T16:00:18;7.43;;;3.08;;
58874;SDS011;44652;49.040;12.126;2023-11-21T16:02:47;4.50;;;2.33;;
58874;SDS011;44652;49.040;12.126;2023-11-21T16:05:15;3.67;;;2.33;;
58874;SDS011;44652;49.040;12.126;2023-11-21T16:07:43;4.45;;;2.53;;
58874;SDS011;44652;49.040;12.126;2023-11-21T16:10:10;7.20;;;2.60;;
58874;SDS011;44652;49.040;12.126;2023-11-21T16:12:37;3.33;;;1.88;;
58874;SDS011;44652;49.040;12.126;2023-11-21T16:15:07;4.30;;;1.60;;
58874;SDS011;44652;49.040;12.126;2023-11-21T16:17:37;3.35;;;1.92;;
58874;SDS011;44652;49.040;12.126;2023-11-21T16:20:05;3.87;;;1.67;;
58874;SDS011;44652;49.040;12.126;2023-11-21T16:22:38;5.43;;;1.95;;
58874;SDS011;44652;49.040;12.126;2023-11-21T16:25:08;3.65;;;1.70;;
58874;SDS011;44652;49.040;12.126;2023-11-21T16:27:39;4.13;;;1.90;;
58874;SDS011;44652;49.040;12.126;2023-11-21T16:30:07;2.97;;;1.65;;
58874;SDS011;44652;49.040;12.126;2023-11-21T16:32:35;4.72;;;1.70;;
58874;SDS011;44652;49.040;12.126;2023-11-21T16:35:03;3.67;;;1.55;;
58874;SDS011;44652;49.040;12.126;2023-11-21T16:37:30;3.35;;;1.05;;
58874;SDS011;44652;49.040;12.126;2023-11-21T16:39:58;2.90;;;1.58;;
58874;SDS011;44652;49.040;12.126;2023-11-21T16:42:25;6.57;;;1.70;;
58874;SDS011;44652;49.040;12.126;2023-11-21T16:44:56;3.55;;;2.08;;
58874;SDS011;44652;49.040;12.126;2023-11-21T16:47:23;3.63;;;2.08;;
58874;SDS011;44652;49.040;12.126;2023-11-21T16:49:52;3.05;;;1.92;;
58874;SDS011;44652;49.040;12.126;2023-11-21T16:52:19;3.42;;;1.85;;
58874;SDS011;44652;49.040;12.126;2023-11-21T16:54:49;5.85;;;3.08;;
58874;SDS011;44652;49.040;12.126;2023-11-21T16:57:16;5.07;;;3.07;;
58874;SDS011;44652;49.040;12.126;2023-11-21T16:59:43;5.47;;;2.28;;
58874;SDS011;44652;49.040;12.126;2023-11-21T17:02:10;3.58;;;1.80;;
58874;SDS011;44652;49.040;12.126;2023-11-21T17:04:40;3.75;;;2.42;;
58874;SDS011;44652;49.040;12.126;2023-11-21T17:07:09;5.03;;;2.50;;
58874;SDS011;44652;49.040;12.126;2023-11-21T17:09:38;4.43;;;2.03;;
58874;SDS011;44652;49.040;12.126;2023-11-21T17:14:32;2.80;;;1.77;;
58874;SDS011;44652;49.040;12.126;2023-11-21T17:16:59;4.68;;;2.50;;
58874;SDS011;44652;49.040;12.126;2023-11-21T17:19:26;4.63;;;2.72;;
58874;SDS011;44652;49.040;12.126;2023-11-21T17:21:58;6.55;;;2.67;;
58874;SDS011;44652;49.040;12.126;2023-11-21T17:24:24;4.88;;;2.42;;
58874;SDS011;44652;49.040;12.126;2023-11-21T17:26:51;3.33;;;1.50;;
58874;SDS011;44652;49.040;12.126;2023-11-21T17:29:19;3.58;;;1.95;;
58874;SDS011;44652;49.040;12.126;2023-11-21T17:31:46;3.47;;;1.77;;
58874;SDS011;44652;49.040;12.126;2023-11-21T17:34:13;4.40;;;2.10;;
58874;SDS011;44652;49.040;12.126;2023-11-21T17:36:40;3.72;;;2.30;;
58874;SDS011;44652;49.040;12.126;2023-11-21T17:39:07;7.50;;;2.73;;
58874;SDS011;44652;49.040;12.126;2023-11-21T17:41:37;5.15;;;2.88;;
58874;SDS011;44652;49.040;12.126;2023-11-21T17:44:04;3.15;;;1.90;;
58874;SDS011;44652;49.040;12.126;2023-11-21T17:46:32;3.78;;;2.00;;
58874;SDS011;44652;49.040;12.126;2023-11-21T17:48:59;4.00;;;1.85;;
58874;SDS011;44652;49.040;12.126;2023-11-21T17:51:26;5.10;;;2.47;;
58874;SDS011;44652;49.040;12.126;2023-11-21T17:53:52;6.65;;;2.72;;
58874;SDS011;44652;49.040;12.126;2023-11-21T17:56:24;4.60;;;2.28;;
58874;SDS011;44652;49.040;12.126;2023-11-21T17:58:51;2.90;;;1.67;;
58874;SDS011;44652;49.040;12.126;2023-11-21T18:01:20;3.58;;;1.65;;
58874;SDS011;44652;49.040;12.126;2023-11-21T18:03:47;1.58;;;1.08;;
58874;SDS011;44652;49.040;12.126;2023-11-21T18:06:15;1.45;;;1.00;;
58874;SDS011;44652;49.040;12.126;2023-11-21T18:08:42;2.72;;;1.40;;
58874;SDS011;44652;49.040;12.126;2023-11-21T18:11:08;2.22;;;1.17;;
58874;SDS011;44652;49.040;12.126;2023-11-21T18:13:35;1.48;;;1.02;;
58874;SDS011;44652;49.040;12.126;2023-11-21T18:16:02;2.15;;;1.30;;
58874;SDS011;44652;49.040;12.126;2023-11-21T18:18:28;1.23;;;0.90;;
58874;SDS011;44652;49.040;12.126;2023-11-21T18:20:55;2.88;;;1.50;;
58874;SDS011;44652;49.040;12.126;2023-11-21T18:23:22;4.30;;;1.60;;
58874;SDS011;44652;49.040;12.126;2023-11-21T18:25:49;1.30;;;0.98;;
58874;SDS011;44652;49.040;12.126;2023-11-21T18:28:15;3.50;;;1.73;;
58874;SDS011;44652;49.040;12.126;2023-11-21T18:30:42;6.20;;;1.10;;
58874;SDS011;44652;49.040;12.126;2023-11-21T18:33:09;3.33;;;1.77;;
58874;SDS011;44652;49.040;12.126;2023-11-21T18:35:37;1.65;;;0.90;;
58874;SDS011;44652;49.040;12.126;2023-11-21T18:38:04;5.47;;;1.67;;
58874;SDS011;44652;49.040;12.126;2023-11-21T18:40:31;3.13;;;1.55;;
58874;SDS011;44652;49.040;12.126;2023-11-21T18:42:58;2.50;;;1.33;;
58874;SDS011;44652;49.040;12.126;2023-11-21T18:45:25;3.83;;;1.40;;
58874;SDS011;44652;49.040;12.126;2023-11-21T18:47:51;2.25;;;1.27;;
58874;SDS011;44652;49.040;12.126;2023-11-21T18:50:18;2.22;;;1.33;;
58874;SDS011;44652;49.040;12.126;2023-11-21T18:52:47;3.92;;;1.77;;
58874;SDS011;44652;49.040;12.126;2023-11-21T18:55:16;2.53;;;1.42;;
58874;SDS011;44652;49.040;12.126;2023-11-21T18:57:42;3.22;;;1.42;;
58874;SDS011;44652;49.040;12.126;2023-11-21T19:00:09;2.70;;;1.20;;
58874;SDS011;44652;49.040;12.126;2023-11-21T19:02:38;2.88;;;1.83;;
58874;SDS011;44652;49.040;12.126;2023-11-21T19:05:07;3.90;;;2.10;;
58874;SDS011;44652;49.040;12.126;2023-11-21T19:07:34;2.13;;;0.97;;
58874;SDS011;44652;49.040;12.126;2023-11-21T19:10:03;2.85;;;1.65;;
58874;SDS011;44652;49.040;12.126;2023-11-21T19:12:36;3.05;;;1.27;;
58874;SDS011;44652;49.040;12.126;2023-11-21T19:15:07;2.85;;;1.60;;
58874;SDS011;44652;49.040;12.126;2023-11-21T19:17:43;2.80;;;1.60;;
58874;SDS011;44652;49.040;12.126;2023-11-21T19:20:10;3.20;;;1.60;;
58874;SDS011;44652;49.040;12.126;2023-11-21T19:22:37;3.58;;;2.00;;
58874;SDS011;44652;49.040;12.126;2023-11-21T19:25:04;2.08;;;1.17;;
58874;SDS011;44652;49.040;12.126;2023-11-21T19:27:33;4.63;;;1.90;;
58874;SDS011;44652;49.040;12.126;2023-11-21T19:30:01;5.00;;;1.20;;
58874;SDS011;44652;49.040;12.126;2023-11-21T19:32:28;2.92;;;1.80;;
58874;SDS011;44652;49.040;12.126;2023-11-21T19:34:56;3.40;;;1.40;;
58874;SDS011;44652;49.040;12.126;2023-11-21T19:37:23;2.88;;;1.23;;
58874;SDS011;44652;49.040;12.126;2023-11-21T19:39:50;4.82;;;1.60;;
58874;SDS011;44652;49.040;12.126;2023-11-21T19:42:17;4.90;;;1.60;;
58874;SDS011;44652;49.040;12.126;2023-11-21T19:44:44;2.25;;;1.42;;
58874;SDS011;44652;49.040;12.126;2023-11-21T19:47:11;2.30;;;1.48;;
58874;SDS011;44652;49.040;12.126;2023-11-21T19:49:39;4.95;;;2.05;;
58874;SDS011;44652;49.040;12.126;2023-11-21T19:52:06;1.30;;;1.13;;
58874;SDS011;44652;49.040;12.126;2023-11-21T19:54:33;2.45;;;1.45;;
58874;SDS011;44652;49.040;12.126;2023-11-21T19:57:00;3.63;;;1.40;;
58874;SDS011;44652;49.040;12.126;2023-11-21T19:59:30;5.45;;;1.70;;
58874;SDS011;44652;49.040;12.126;2023-11-21T20:01:58;2.65;;;1.10;;
58874;SDS011;44652;49.040;12.126;2023-11-21T20:04:25;1.38;;;1.05;;
58874;SDS011;44652;49.040;12.126;2023-11-21T20:06:52;1.20;;;0.65;;
58874;SDS011;44652;49.040;12.126;2023-11-21T20:09:22;1.42;;;0.70;;
58874;SDS011;44652;49.040;12.126;2023-11-21T20:11:49;1.30;;;0.77;;
58874;SDS011;44652;49.040;12.126;2023-11-21T20:14:18;3.22;;;1.98;;
58874;SDS011;44652;49.040;12.126;2023-11-21T20:16:45;1.77;;;1.08;;
58874;SDS011;44652;49.040;12.126;2023-11-21T20:19:13;2.72;;;1.52;;
58874;SDS011;44652;49.040;12.126;2023-11-21T20:21:40;2.17;;;1.00;;
58874;SDS011;44652;49.040;12.126;2023-11-21T20:24:07;1.77;;;1.08;;
58874;SDS011;44652;49.040;12.126;2023-11-21T20:26:38;2.55;;;1.17;;
58874;SDS011;44652;49.040;12.126;2023-11-21T20:29:08;3.08;;;1.13;;
58874;SDS011;44652;49.040;12.126;2023-11-21T20:31:35;2.63;;;1.23;;
58874;SDS011;44652;49.040;12.126;2023-11-21T20:34:02;2.33;;;1.35;;
58874;SDS011;44652;49.040;12.126;2023-11-21T20:36:31;4.38;;;2.35;;
58874;SDS011;44652;49.040;12.126;2023-11-21T20:38:57;3.78;;;1.52;;
58874;SDS011;44652;49.040;12.126;2023-11-21T20:41:25;2.75;;;1.35;;
58874;SDS011;44652;49.040;12.126;2023-11-21T20:43:54;5.07;;;2.33;;
58874;SDS011;44652;49.040;12.126;2023-11-21T20:46:22;3.20;;;1.63;;
58874;SDS011;44652;49.040;12.126;2023-11-21T20:48:49;5.28;;;1.98;;
58874;SDS011;44652;49.040;12.126;2023-11-21T20:51:20;3.45;;;1.90;;
58874;SDS011;44652;49.040;12.126;2023-11-21T20:53:48;3.80;;;2.00;;